createdAt,value
2018-07-20T00:01:36.811Z,19.10
2018-07-20T00:04:05.472Z,19.00
2018-07-20T00:06:34.149Z,18.90
2018-07-20T00:09:03.110Z,18.80
2018-07-20T00:11:31.759Z,18.70
2018-07-20T00:14:00.399Z,18.70
2018-07-20T00:16:29.038Z,18.70
2018-07-20T00:18:57.711Z,18.70
2018-07-20T00:26:23.231Z,18.70
2018-07-20T00:28:51.889Z,18.60
2018-07-20T00:31:20.508Z,18.60
2018-07-20T00:36:17.529Z,18.60
2018-07-20T00:38:46.128Z,18.60
2018-07-20T00:41:14.791Z,18.60
2018-07-20T00:43:43.358Z,18.60
2018-07-20T00:46:11.933Z,18.60
2018-07-20T00:48:40.511Z,18.70
2018-07-20T00:51:09.121Z,18.70
2018-07-20T00:53:37.736Z,18.60
2018-07-20T00:56:06.486Z,18.50
2018-07-20T00:58:35.116Z,18.40
2018-07-20T01:01:03.821Z,18.40
2018-07-20T01:03:32.504Z,18.30
2018-07-20T01:08:29.519Z,18.30
2018-07-20T01:10:58.144Z,18.20
2018-07-20T01:13:26.754Z,18.10
2018-07-20T01:15:55.341Z,17.90
2018-07-20T01:18:24.003Z,17.70
2018-07-20T01:23:21.073Z,17.30
2018-07-20T01:28:18.126Z,17.00
2018-07-20T01:33:15.240Z,16.90
2018-07-20T01:35:43.864Z,17.00
2018-07-20T01:38:12.550Z,17.10
2018-07-20T01:40:41.225Z,17.10
2018-07-20T01:43:09.990Z,17.20
2018-07-20T01:45:38.685Z,17.30
2018-07-20T01:48:07.370Z,17.40
2018-07-20T01:50:35.998Z,17.50
2018-07-20T01:53:04.773Z,17.50
2018-07-20T01:58:01.815Z,17.60
2018-07-20T02:00:30.426Z,17.70
2018-07-20T02:03:00.746Z,17.90
2018-07-20T02:05:29.350Z,18.10
2018-07-20T02:07:57.930Z,18.00
2018-07-20T02:10:26.594Z,17.90
2018-07-20T02:15:23.686Z,17.90
2018-07-20T02:17:52.430Z,17.80
2018-07-20T02:20:21.122Z,17.50
2018-07-20T02:22:49.729Z,17.20
2018-07-20T02:25:18.378Z,17.10
2018-07-20T02:27:46.986Z,17.00
2018-07-20T02:32:44.053Z,16.90
2018-07-20T02:35:12.686Z,16.90
2018-07-20T02:37:41.308Z,16.90
2018-07-20T02:40:09.905Z,16.90
2018-07-20T02:42:38.498Z,16.90
2018-07-20T02:45:07.238Z,16.90
2018-07-20T02:47:35.853Z,16.80
2018-07-20T02:55:01.554Z,16.90
2018-07-20T02:57:30.183Z,16.80
2018-07-20T02:59:58.823Z,16.80
2018-07-20T03:02:27.443Z,16.70
2018-07-20T03:04:56.130Z,16.60
2018-07-20T03:09:53.336Z,16.40
2018-07-20T03:12:21.944Z,16.40
2018-07-20T03:14:50.658Z,16.40
2018-07-20T03:19:47.771Z,16.50
2018-07-20T03:22:16.451Z,16.50
2018-07-20T03:24:45.132Z,16.50
2018-07-20T03:27:13.765Z,16.60
2018-07-20T03:29:42.571Z,16.60
2018-07-20T03:32:11.218Z,16.60
2018-07-20T03:34:39.806Z,16.50
2018-07-20T03:37:08.470Z,16.40
2018-07-20T03:39:37.044Z,16.30
2018-07-20T03:42:05.822Z,16.30
2018-07-20T03:47:03.011Z,16.30
2018-07-20T03:49:31.658Z,16.30
2018-07-20T03:54:28.796Z,16.30
2018-07-20T03:56:57.496Z,16.40
2018-07-20T03:59:26.116Z,16.40
2018-07-20T04:01:54.746Z,16.50
2018-07-20T04:04:23.424Z,16.50
2018-07-20T04:06:52.044Z,16.50
2018-07-20T04:11:49.106Z,16.50
2018-07-20T04:14:17.793Z,16.60
2018-07-20T04:19:15.047Z,16.80
2018-07-20T04:21:43.665Z,16.90
2018-07-20T04:24:12.371Z,17.00
2018-07-20T04:26:40.979Z,17.10
2018-07-20T04:29:09.638Z,17.00
2018-07-20T04:31:38.333Z,17.10
2018-07-20T04:34:06.926Z,17.30
2018-07-20T04:36:35.611Z,17.40
2018-07-20T04:39:07.991Z,17.60
2018-07-20T04:41:36.686Z,17.70
2018-07-20T04:44:05.473Z,17.80
2018-07-20T04:46:34.211Z,17.90
2018-07-20T04:49:03.009Z,17.90
2018-07-20T04:51:31.931Z,18.00
2018-07-20T04:54:00.593Z,18.20
2018-07-20T04:56:29.280Z,18.30
2018-07-20T04:58:57.973Z,18.20
2018-07-20T05:01:26.678Z,18.50
2018-07-20T05:03:55.335Z,18.60
2018-07-20T05:06:24.009Z,18.60
2018-07-20T05:08:52.626Z,18.80
2018-07-20T05:11:21.403Z,18.70
2018-07-20T05:13:49.966Z,18.90
2018-07-20T05:16:18.703Z,18.80
2018-07-20T05:18:47.371Z,19.00
2018-07-20T05:21:16.018Z,19.40
2018-07-20T05:23:44.730Z,19.60
2018-07-20T05:26:13.505Z,19.60
2018-07-20T05:28:42.148Z,19.90
2018-07-20T05:31:10.964Z,20.10
2018-07-20T05:33:39.697Z,20.10
2018-07-20T05:36:08.443Z,20.10
2018-07-20T05:38:37.201Z,20.30
2018-07-20T05:41:05.978Z,20.50
2018-07-20T05:43:34.678Z,20.70
2018-07-20T05:46:03.551Z,20.80
2018-07-20T05:51:00.731Z,21.50
2018-07-20T05:53:29.415Z,21.70
2018-07-20T05:55:58.039Z,21.90
2018-07-20T05:58:26.856Z,22.00
2018-07-20T06:00:55.568Z,22.20
2018-07-20T06:05:52.821Z,22.60
2018-07-20T06:08:21.410Z,23.00
2018-07-20T06:15:46.991Z,23.50
2018-07-20T06:18:15.720Z,23.50
2018-07-20T06:20:44.396Z,23.70
2018-07-20T06:23:13.071Z,23.70
2018-07-20T06:25:41.783Z,23.50
2018-07-20T06:28:10.493Z,23.70
2018-07-20T06:30:39.143Z,23.90
2018-07-20T06:33:07.845Z,24.10
2018-07-20T06:35:36.471Z,24.20
2018-07-20T06:38:05.149Z,24.30
2018-07-20T06:40:33.861Z,24.30
2018-07-20T06:43:02.677Z,24.50
2018-07-20T06:45:31.503Z,24.80
2018-07-20T06:48:00.143Z,25.20
2018-07-20T06:52:57.398Z,25.80
2018-07-20T06:55:26.250Z,25.80
2018-07-20T06:57:54.923Z,26.00
2018-07-20T07:00:23.562Z,26.10
2018-07-20T07:02:52.301Z,26.40
2018-07-20T07:05:21.003Z,26.60
2018-07-20T07:07:50.193Z,26.70
2018-07-20T07:10:19.086Z,26.60
2018-07-20T07:12:47.753Z,26.70
2018-07-20T07:15:16.560Z,26.80
2018-07-20T07:17:45.430Z,27.30
2018-07-20T07:20:14.650Z,27.40
2018-07-20T07:22:43.795Z,27.60
2018-07-20T07:25:13.464Z,27.40
2018-07-20T07:27:42.158Z,27.30
2018-07-20T07:30:10.863Z,27.50
2018-07-20T07:32:40.205Z,27.70
2018-07-20T07:35:09.043Z,27.60
2018-07-20T07:37:37.651Z,28.00
2018-07-20T07:40:06.481Z,28.70
2018-07-20T07:42:35.096Z,28.50
2018-07-20T07:45:04.656Z,28.40
2018-07-20T07:47:33.605Z,28.60
2018-07-20T07:50:02.296Z,28.60
2018-07-20T07:52:30.965Z,28.70
2018-07-20T07:54:59.698Z,28.90
2018-07-20T07:57:28.305Z,29.30
2018-07-20T07:59:56.983Z,29.40
2018-07-20T08:02:25.633Z,29.30
2018-07-20T08:04:54.323Z,29.20
2018-07-20T08:07:23.031Z,29.30
2018-07-20T08:09:52.355Z,29.50
2018-07-20T08:12:21.083Z,29.90
2018-07-20T08:14:49.702Z,30.40
2018-07-20T08:17:18.412Z,30.60
2018-07-20T08:19:47.176Z,30.90
2018-07-20T08:22:15.820Z,30.90
2018-07-20T08:24:44.902Z,31.30
2018-07-20T08:27:13.754Z,31.60
2018-07-20T08:29:42.501Z,31.50
2018-07-20T08:32:11.364Z,31.70
2018-07-20T08:34:40.113Z,31.70
2018-07-20T08:37:08.820Z,31.70
2018-07-20T08:39:37.434Z,32.10
2018-07-20T08:42:06.903Z,31.80
2018-07-20T08:44:35.651Z,31.70
2018-07-20T08:47:04.538Z,31.80
2018-07-20T08:49:33.315Z,32.10
2018-07-20T08:52:02.111Z,32.20
2018-07-20T08:54:30.774Z,32.50
2018-07-20T08:56:59.498Z,32.50
2018-07-20T08:59:28.198Z,32.80
2018-07-20T09:01:56.919Z,32.80
2018-07-20T09:04:25.629Z,32.90
2018-07-20T09:06:54.436Z,32.80
2018-07-20T09:09:23.211Z,32.70
2018-07-20T09:11:51.918Z,32.90
2018-07-20T09:16:49.024Z,32.60
2018-07-20T09:19:17.667Z,32.90
2018-07-20T09:21:46.615Z,32.80
2018-07-20T09:24:15.294Z,32.70
2018-07-20T09:26:43.953Z,32.40
2018-07-20T09:29:12.607Z,32.10
2018-07-20T09:31:41.351Z,32.40
2018-07-20T09:34:10.146Z,32.90
2018-07-20T09:36:38.779Z,33.10
2018-07-20T09:41:37.941Z,33.30
2018-07-20T09:44:06.817Z,33.60
2018-07-20T09:46:35.486Z,33.30
2018-07-20T09:49:04.268Z,33.80
2018-07-20T09:51:33.023Z,33.60
2018-07-20T09:54:01.716Z,34.00
2018-07-20T09:56:30.460Z,33.90
2018-07-20T09:58:59.123Z,34.40
2018-07-20T10:01:27.813Z,34.90
2018-07-20T10:03:56.615Z,34.50
2018-07-20T10:06:25.961Z,34.80
2018-07-20T10:11:23.440Z,35.40
2018-07-20T10:13:52.310Z,35.20
2018-07-20T10:16:21.026Z,35.20
2018-07-20T10:18:49.746Z,35.60
2018-07-20T10:21:18.517Z,35.60
2018-07-20T10:23:47.169Z,35.60
2018-07-20T10:26:16.046Z,35.70
2018-07-20T10:28:44.908Z,35.70
2018-07-20T10:31:13.609Z,35.70
2018-07-20T10:33:42.352Z,35.80
2018-07-20T10:36:11.613Z,36.10
2018-07-20T10:38:40.291Z,36.30
2018-07-20T10:41:08.961Z,36.20
2018-07-20T10:43:37.571Z,36.60
2018-07-20T10:46:06.375Z,36.80
2018-07-20T10:48:35.234Z,36.90
2018-07-20T10:51:03.876Z,36.20
2018-07-20T10:53:32.731Z,36.30
2018-07-20T10:56:01.376Z,36.40
2018-07-20T10:58:30.024Z,36.60
2018-07-20T11:00:59.440Z,36.70
2018-07-20T11:03:28.123Z,36.90
2018-07-20T11:05:56.759Z,36.90
2018-07-20T11:08:25.577Z,36.70
2018-07-20T11:10:54.446Z,36.80
2018-07-20T11:15:51.728Z,36.70
2018-07-20T11:20:49.009Z,37.00
2018-07-20T11:23:17.806Z,37.10
2018-07-20T11:25:46.472Z,37.30
2018-07-20T11:28:15.281Z,37.50
2018-07-20T11:30:44.013Z,37.20
2018-07-20T11:33:12.955Z,37.10
2018-07-20T11:35:43.696Z,37.10
2018-07-20T11:38:12.480Z,37.30
2018-07-20T11:40:41.262Z,37.40
2018-07-20T11:43:10.131Z,37.60
2018-07-20T11:45:38.965Z,37.70
2018-07-20T11:48:07.866Z,37.70
2018-07-20T11:50:36.543Z,37.80
2018-07-20T11:53:05.341Z,37.50
2018-07-20T11:55:34.146Z,37.60
2018-07-20T11:58:03.058Z,37.70
2018-07-20T12:00:31.793Z,37.70
2018-07-20T12:03:00.490Z,38.00
2018-07-20T12:05:29.213Z,37.30
2018-07-20T12:10:26.433Z,36.80
2018-07-20T12:12:55.115Z,37.30
2018-07-20T12:15:23.901Z,37.60
2018-07-20T12:17:52.703Z,37.90
2018-07-20T12:20:21.442Z,37.60
2018-07-20T12:22:50.196Z,37.60
2018-07-20T12:25:19.363Z,38.00
2018-07-20T12:27:48.062Z,38.40
2018-07-20T12:30:16.820Z,38.20
2018-07-20T12:32:45.582Z,37.80
2018-07-20T12:35:14.460Z,38.40
2018-07-20T12:40:12.561Z,38.30
2018-07-20T12:42:41.361Z,38.50
2018-07-20T12:45:10.037Z,38.60
2018-07-20T12:47:38.736Z,38.40
2018-07-20T12:50:07.580Z,38.90
2018-07-20T12:52:36.561Z,38.20
2018-07-20T12:55:05.272Z,37.90
2018-07-20T12:57:33.958Z,37.50
2018-07-20T13:00:04.272Z,37.80
2018-07-20T13:02:32.963Z,37.70
2018-07-20T13:05:01.638Z,38.10
2018-07-20T13:07:30.306Z,38.30
2018-07-20T13:09:58.989Z,38.70
2018-07-20T13:12:27.688Z,38.40
2018-07-20T13:14:56.381Z,37.80
2018-07-20T13:17:25.246Z,38.10
2018-07-20T13:19:54.526Z,37.80
2018-07-20T13:22:23.146Z,37.30
2018-07-20T13:24:52.021Z,37.10
2018-07-20T13:27:20.658Z,36.90
2018-07-20T13:29:50.271Z,37.50
2018-07-20T13:32:18.929Z,38.00
2018-07-20T13:34:47.650Z,38.20
2018-07-20T13:37:16.354Z,38.30
2018-07-20T13:39:45.071Z,38.00
2018-07-20T13:42:13.793Z,37.30
2018-07-20T13:44:42.598Z,37.40
2018-07-20T13:47:12.128Z,37.30
2018-07-20T13:49:41.589Z,36.80
2018-07-20T13:52:11.406Z,37.20
2018-07-20T13:54:40.116Z,37.00
2018-07-20T13:57:08.776Z,37.10
2018-07-20T14:02:07.287Z,36.70
2018-07-20T14:04:36.138Z,37.30
2018-07-20T14:07:05.196Z,37.00
2018-07-20T14:09:33.996Z,36.90
2018-07-20T14:12:02.766Z,36.80
2018-07-20T14:14:31.722Z,36.50
2018-07-20T14:17:00.691Z,36.50
2018-07-20T14:19:29.387Z,36.00
2018-07-20T14:21:58.223Z,36.40
2018-07-20T14:24:27.218Z,36.80
2018-07-20T14:26:55.926Z,37.40
2018-07-20T14:29:24.644Z,37.40
2018-07-20T14:34:21.931Z,37.50
2018-07-20T14:36:50.768Z,37.30
2018-07-20T14:39:19.436Z,37.40
2018-07-20T14:41:48.131Z,37.30
2018-07-20T14:44:16.716Z,36.90
2018-07-20T14:46:45.358Z,36.50
2018-07-20T14:49:14.062Z,36.70
2018-07-20T14:51:43.766Z,36.80
2018-07-20T14:54:12.436Z,37.00
2018-07-20T14:59:09.695Z,37.20
2018-07-20T15:01:38.377Z,37.30
2018-07-20T15:04:07.973Z,37.40
2018-07-20T15:06:36.580Z,37.40
2018-07-20T15:11:36.293Z,37.90
2018-07-20T15:14:05.798Z,37.70
2018-07-20T15:16:34.428Z,37.50
2018-07-20T15:19:03.138Z,37.70
2018-07-20T15:21:31.905Z,38.00
2018-07-20T15:24:00.609Z,37.60
2018-07-20T15:26:29.278Z,37.40
2018-07-20T15:28:58.083Z,37.20
2018-07-20T15:31:26.875Z,36.80
2018-07-20T15:33:55.707Z,36.80
2018-07-20T15:36:24.408Z,36.50
2018-07-20T15:38:53.088Z,36.50
2018-07-20T15:41:22.455Z,36.20
2018-07-20T15:43:51.103Z,35.60
2018-07-20T15:46:19.918Z,35.00
2018-07-20T15:48:48.517Z,34.70
2018-07-20T15:51:17.151Z,34.40
2018-07-20T15:53:46.750Z,34.20
2018-07-20T15:56:15.583Z,34.20
2018-07-20T15:58:44.237Z,34.60
2018-07-20T16:01:12.967Z,34.50
2018-07-20T16:08:38.690Z,33.70
2018-07-20T16:11:07.382Z,33.80
2018-07-20T16:13:36.167Z,34.00
2018-07-20T16:16:05.051Z,34.10
2018-07-20T16:18:33.793Z,33.80
2018-07-20T16:21:03.738Z,33.70
2018-07-20T16:23:33.981Z,33.70
2018-07-20T16:26:02.869Z,33.50
2018-07-20T16:28:32.283Z,33.30
2018-07-20T16:31:01.041Z,33.30
2018-07-20T16:33:29.796Z,33.40
2018-07-20T16:35:58.980Z,33.50
2018-07-20T16:38:27.536Z,33.80
2018-07-20T16:40:56.852Z,33.70
2018-07-20T16:43:25.566Z,33.30
2018-07-20T16:45:54.348Z,33.10
2018-07-20T16:48:23.043Z,32.90
2018-07-20T16:50:51.759Z,32.70
2018-07-20T16:53:21.114Z,32.70
2018-07-20T16:58:18.243Z,32.50
2018-07-20T17:00:46.940Z,32.50
2018-07-20T17:03:15.591Z,32.20
2018-07-20T17:05:44.230Z,32.10
2018-07-20T17:10:41.446Z,31.40
2018-07-20T17:13:10.075Z,31.10
2018-07-20T17:18:08.014Z,30.60
2018-07-20T17:20:36.643Z,30.50
2018-07-20T17:23:05.376Z,30.30
2018-07-20T17:25:33.979Z,30.20
2018-07-20T17:28:02.654Z,30.10
2018-07-20T17:30:31.566Z,30.00
2018-07-20T17:33:00.339Z,29.90
2018-07-20T17:35:28.999Z,29.80
2018-07-20T17:37:58.668Z,29.70
2018-07-20T17:45:24.290Z,29.50
2018-07-20T17:47:52.967Z,29.50
2018-07-20T17:50:22.590Z,29.40
2018-07-20T17:52:51.334Z,29.40
2018-07-20T17:55:20.038Z,29.40
2018-07-20T17:57:48.761Z,29.30
2018-07-20T18:00:17.595Z,29.30
2018-07-20T18:02:46.366Z,29.20
2018-07-20T18:05:15.677Z,29.10
2018-07-20T18:07:44.364Z,29.10
2018-07-20T18:10:14.094Z,29.00
2018-07-20T18:12:42.859Z,29.00
2018-07-20T18:15:12.203Z,28.90
2018-07-20T18:17:41.035Z,28.90
2018-07-20T18:22:38.733Z,28.70
2018-07-20T18:25:07.372Z,28.70
2018-07-20T18:27:36.361Z,28.60
2018-07-20T18:30:06.279Z,28.60
2018-07-20T18:32:34.981Z,28.40
2018-07-20T18:35:03.685Z,28.40
2018-07-20T18:37:33.298Z,28.40
2018-07-20T18:40:02.077Z,28.30
2018-07-20T18:42:30.756Z,28.20
2018-07-20T18:44:59.478Z,28.10
2018-07-20T18:47:28.871Z,27.90
2018-07-20T18:49:58.145Z,27.80
2018-07-20T18:52:27.365Z,27.50
2018-07-20T18:54:56.003Z,27.30
2018-07-20T18:57:24.721Z,27.10
2018-07-20T18:59:53.376Z,26.90
2018-07-20T19:02:22.070Z,26.70
2018-07-20T19:07:19.178Z,26.50
2018-07-20T19:09:47.866Z,26.40
2018-07-20T19:12:16.490Z,26.20
2018-07-20T19:14:45.195Z,25.90
2018-07-20T19:17:15.090Z,25.70
2018-07-20T19:19:43.666Z,25.50
2018-07-20T19:22:12.348Z,25.30
2018-07-20T19:24:40.972Z,25.20
2018-07-20T19:27:09.606Z,25.10
2018-07-20T19:29:38.225Z,25.10
2018-07-20T19:32:07.048Z,25.20
2018-07-20T19:34:35.668Z,25.40
2018-07-20T19:37:04.438Z,25.50
2018-07-20T19:39:33.060Z,25.80
2018-07-20T19:42:02.442Z,26.00
2018-07-20T19:44:31.408Z,26.10
2018-07-20T19:47:00.086Z,26.20
2018-07-20T19:49:28.822Z,26.10
2018-07-20T19:51:57.515Z,25.80
2018-07-20T19:54:26.238Z,25.50
2018-07-20T19:56:54.891Z,25.10
2018-07-20T19:59:24.246Z,24.60
2018-07-20T20:01:53.069Z,24.50
2018-07-20T20:04:21.804Z,24.40
2018-07-20T20:11:47.798Z,24.00
2018-07-20T20:14:16.488Z,23.90
2018-07-20T20:16:45.249Z,23.60
2018-07-20T20:19:13.888Z,23.40
2018-07-20T20:21:42.594Z,23.30
2018-07-20T20:24:11.293Z,23.20
2018-07-20T20:26:39.989Z,23.10
2018-07-20T20:29:08.606Z,23.10
2018-07-20T20:31:37.298Z,23.00
2018-07-20T20:36:34.516Z,22.80
2018-07-20T20:39:05.306Z,22.70
2018-07-20T20:46:31.196Z,22.70
2018-07-20T20:48:59.978Z,22.80
2018-07-20T20:51:29.357Z,22.80
2018-07-20T20:53:58.028Z,22.90
2018-07-20T20:56:26.686Z,22.80
2018-07-20T20:58:55.386Z,22.80
2018-07-20T21:01:23.992Z,22.70
2018-07-20T21:06:21.129Z,22.60
2018-07-20T21:08:49.751Z,22.50
2018-07-20T21:13:46.838Z,22.40
2018-07-20T21:16:15.826Z,22.30
2018-07-20T21:18:44.638Z,22.20
2018-07-20T21:21:13.300Z,22.10
2018-07-20T21:23:41.963Z,22.30
2018-07-20T21:26:10.674Z,22.10
2018-07-20T21:28:39.291Z,21.70
2018-07-20T21:31:08.096Z,21.40
2018-07-20T21:33:36.740Z,21.10
2018-07-20T21:36:05.467Z,21.00
2018-07-20T21:38:34.108Z,21.00
2018-07-20T21:41:03.066Z,20.90
2018-07-20T21:46:00.331Z,20.90
2018-07-20T21:48:28.960Z,21.00
2018-07-20T21:50:57.656Z,21.00
2018-07-20T21:53:26.316Z,21.20
2018-07-20T21:55:55.093Z,21.20
2018-07-20T21:58:23.780Z,21.20
2018-07-20T22:00:52.568Z,21.10
2018-07-20T22:03:21.262Z,21.10
2018-07-20T22:05:49.901Z,21.30
2018-07-20T22:08:18.598Z,21.30
2018-07-20T22:10:47.221Z,21.30
2018-07-20T22:13:15.888Z,21.20
2018-07-20T22:15:44.518Z,21.10
2018-07-20T22:18:13.158Z,21.10
2018-07-20T22:20:41.747Z,20.90
2018-07-20T22:23:10.381Z,20.90
2018-07-20T22:25:39.036Z,20.90
2018-07-20T22:28:07.680Z,20.90
2018-07-20T22:33:04.896Z,21.10
2018-07-20T22:35:33.534Z,21.20
2018-07-20T22:40:30.609Z,21.10
2018-07-20T22:42:59.243Z,20.90
2018-07-20T22:45:27.918Z,20.80
2018-07-20T22:47:56.571Z,20.80
2018-07-20T22:50:27.855Z,20.80
2018-07-20T22:52:56.491Z,20.70
2018-07-20T22:55:25.177Z,20.70
2018-07-20T22:57:54.020Z,20.80
2018-07-20T23:00:22.635Z,20.80
2018-07-20T23:02:51.322Z,20.90
2018-07-20T23:05:20.009Z,21.00
2018-07-20T23:07:48.658Z,20.80
2018-07-20T23:10:17.295Z,20.60
2018-07-20T23:12:45.959Z,20.40
2018-07-20T23:15:15.626Z,20.20
2018-07-20T23:17:44.405Z,20.20
2018-07-20T23:20:13.118Z,20.10
2018-07-20T23:22:42.801Z,20.10
2018-07-20T23:25:11.483Z,20.00
2018-07-20T23:27:40.139Z,20.00
2018-07-20T23:30:08.846Z,20.00
2018-07-20T23:32:37.461Z,19.80
2018-07-20T23:35:06.483Z,19.80
2018-07-20T23:37:35.776Z,19.70
2018-07-20T23:40:04.938Z,19.80
2018-07-20T23:42:33.691Z,19.70
2018-07-20T23:45:02.436Z,19.60
2018-07-20T23:47:31.080Z,19.70
2018-07-20T23:49:59.773Z,19.70
2018-07-20T23:52:28.525Z,19.70
2018-07-20T23:54:57.172Z,19.60
2018-07-20T23:57:25.903Z,19.60
2018-07-20T23:59:54.498Z,19.50
